sensor_id;sensor_type;location;lat;lon;timestamp;P1;durP1;ratioP1;P2;durP2;ratioP2
40373;SDS011;26079;45.958;12.492;2022-08-02T00:00:00;2.08;;;1.88;;
40373;SDS011;26079;45.958;12.492;2022-08-02T00:02:27;7.97;;;1.77;;
40373;SDS011;26079;45.958;12.492;2022-08-02T00:04:52;2.15;;;1.60;;
40373;SDS011;26079;45.958;12.492;2022-08-02T00:07:18;2.50;;;1.85;;
40373;SDS011;26079;45.958;12.492;2022-08-02T00:09:44;4.22;;;1.67;;
40373;SDS011;26079;45.958;12.492;2022-08-02T00:12:10;1.60;;;1.50;;
40373;SDS011;26079;45.958;12.492;2022-08-02T00:14:36;1.80;;;1.50;;
40373;SDS011;26079;45.958;12.492;2022-08-02T00:17:02;6.22;;;2.13;;
40373;SDS011;26079;45.958;12.492;2022-08-02T00:19:28;5.00;;;2.03;;
40373;SDS011;26079;45.958;12.492;2022-08-02T00:21:54;2.20;;;1.52;;
40373;SDS011;26079;45.958;12.492;2022-08-02T00:24:20;1.45;;;1.20;;
40373;SDS011;26079;45.958;12.492;2022-08-02T00:26:45;1.63;;;0.90;;
40373;SDS011;26079;45.958;12.492;2022-08-02T00:29:11;5.63;;;1.23;;
40373;SDS011;26079;45.958;12.492;2022-08-02T00:31:37;3.65;;;0.82;;
40373;SDS011;26079;45.958;12.492;2022-08-02T00:34:02;1.48;;;0.73;;
40373;SDS011;26079;45.958;12.492;2022-08-02T00:36:28;1.83;;;1.20;;
40373;SDS011;26079;45.958;12.492;2022-08-02T00:38:54;4.90;;;2.10;;
40373;SDS011;26079;45.958;12.492;2022-08-02T00:41:20;2.47;;;0.98;;
40373;SDS011;26079;45.958;12.492;2022-08-02T00:43:47;5.28;;;1.52;;
40373;SDS011;26079;45.958;12.492;2022-08-02T00:46:14;3.08;;;1.65;;
40373;SDS011;26079;45.958;12.492;2022-08-02T00:48:41;0.95;;;0.70;;
40373;SDS011;26079;45.958;12.492;2022-08-02T00:51:07;8.57;;;1.00;;
40373;SDS011;26079;45.958;12.492;2022-08-02T00:53:33;1.63;;;0.77;;
40373;SDS011;26079;45.958;12.492;2022-08-02T00:55:59;2.58;;;0.70;;
40373;SDS011;26079;45.958;12.492;2022-08-02T00:58:25;2.05;;;1.17;;
40373;SDS011;26079;45.958;12.492;2022-08-02T01:00:51;2.15;;;1.00;;
40373;SDS011;26079;45.958;12.492;2022-08-02T01:03:17;1.02;;;0.90;;
40373;SDS011;26079;45.958;12.492;2022-08-02T01:05:43;2.28;;;1.02;;
40373;SDS011;26079;45.958;12.492;2022-08-02T01:08:09;1.35;;;1.13;;
40373;SDS011;26079;45.958;12.492;2022-08-02T01:10:34;2.25;;;1.35;;
40373;SDS011;26079;45.958;12.492;2022-08-02T01:13:00;1.75;;;0.93;;
40373;SDS011;26079;45.958;12.492;2022-08-02T01:15:26;2.70;;;0.45;;
40373;SDS011;26079;45.958;12.492;2022-08-02T01:26:33;4.53;;;0.68;;
40373;SDS011;26079;45.958;12.492;2022-08-02T01:29:06;1.45;;;0.75;;
40373;SDS011;26079;45.958;12.492;2022-08-02T01:31:46;3.83;;;0.75;;
40373;SDS011;26079;45.958;12.492;2022-08-02T01:37:15;13.20;;;1.75;;
40373;SDS011;26079;45.958;12.492;2022-08-02T01:39:44;6.57;;;1.05;;
40373;SDS011;26079;45.958;12.492;2022-08-02T01:42:14;4.15;;;1.10;;
40373;SDS011;26079;45.958;12.492;2022-08-02T01:44:43;3.97;;;1.10;;
40373;SDS011;26079;45.958;12.492;2022-08-02T01:47:23;3.80;;;1.42;;
40373;SDS011;26079;45.958;12.492;2022-08-02T01:49:53;2.65;;;1.48;;
40373;SDS011;26079;45.958;12.492;2022-08-02T01:52:21;2.15;;;0.70;;
40373;SDS011;26079;45.958;12.492;2022-08-02T01:55:06;2.38;;;1.17;;
40373;SDS011;26079;45.958;12.492;2022-08-02T01:57:54;2.10;;;0.73;;
40373;SDS011;26079;45.958;12.492;2022-08-02T02:00:23;6.82;;;1.15;;
40373;SDS011;26079;45.958;12.492;2022-08-02T02:02:53;1.10;;;0.47;;
40373;SDS011;26079;45.958;12.492;2022-08-02T02:05:22;2.03;;;1.25;;
40373;SDS011;26079;45.958;12.492;2022-08-02T02:07:50;2.53;;;1.00;;
40373;SDS011;26079;45.958;12.492;2022-08-02T02:10:21;3.33;;;0.70;;
40373;SDS011;26079;45.958;12.492;2022-08-02T02:12:56;1.05;;;0.85;;
40373;SDS011;26079;45.958;12.492;2022-08-02T02:15:25;2.47;;;1.00;;
40373;SDS011;26079;45.958;12.492;2022-08-02T02:17:52;1.90;;;1.02;;
40373;SDS011;26079;45.958;12.492;2022-08-02T02:20:21;2.15;;;1.23;;
40373;SDS011;26079;45.958;12.492;2022-08-02T02:22:47;2.95;;;1.42;;
40373;SDS011;26079;45.958;12.492;2022-08-02T02:25:14;1.30;;;1.02;;
40373;SDS011;26079;45.958;12.492;2022-08-02T02:28:06;2.10;;;1.35;;
40373;SDS011;26079;45.958;12.492;2022-08-02T02:30:32;2.13;;;1.70;;
40373;SDS011;26079;45.958;12.492;2022-08-02T02:33:01;3.95;;;1.20;;
40373;SDS011;26079;45.958;12.492;2022-08-02T02:35:31;6.32;;;1.20;;
40373;SDS011;26079;45.958;12.492;2022-08-02T02:38:01;3.28;;;1.40;;
40373;SDS011;26079;45.958;12.492;2022-08-02T02:40:29;2.88;;;1.30;;
40373;SDS011;26079;45.958;12.492;2022-08-02T02:42:57;1.30;;;1.17;;
40373;SDS011;26079;45.958;12.492;2022-08-02T02:45:24;3.33;;;1.17;;
40373;SDS011;26079;45.958;12.492;2022-08-02T02:47:51;1.48;;;0.93;;
40373;SDS011;26079;45.958;12.492;2022-08-02T02:50:19;2.00;;;1.00;;
40373;SDS011;26079;45.958;12.492;2022-08-02T02:52:46;2.75;;;1.13;;
40373;SDS011;26079;45.958;12.492;2022-08-02T02:55:13;0.90;;;0.70;;
40373;SDS011;26079;45.958;12.492;2022-08-02T02:57:41;2.42;;;1.23;;
40373;SDS011;26079;45.958;12.492;2022-08-02T03:00:09;3.88;;;1.63;;
40373;SDS011;26079;45.958;12.492;2022-08-02T03:02:36;4.15;;;1.45;;
40373;SDS011;26079;45.958;12.492;2022-08-02T03:05:05;2.00;;;1.05;;
40373;SDS011;26079;45.958;12.492;2022-08-02T03:07:32;6.47;;;1.50;;
40373;SDS011;26079;45.958;12.492;2022-08-02T03:09:58;8.13;;;1.67;;
40373;SDS011;26079;45.958;12.492;2022-08-02T03:12:24;1.33;;;1.23;;
40373;SDS011;26079;45.958;12.492;2022-08-02T03:14:51;2.95;;;1.73;;
40373;SDS011;26079;45.958;12.492;2022-08-02T03:17:18;5.72;;;2.40;;
40373;SDS011;26079;45.958;12.492;2022-08-02T03:19:44;4.90;;;1.63;;
40373;SDS011;26079;45.958;12.492;2022-08-02T03:22:10;2.97;;;1.40;;
40373;SDS011;26079;45.958;12.492;2022-08-02T03:24:36;1.85;;;1.25;;
40373;SDS011;26079;45.958;12.492;2022-08-02T03:27:02;2.30;;;1.42;;
40373;SDS011;26079;45.958;12.492;2022-08-02T03:29:28;2.08;;;1.15;;
40373;SDS011;26079;45.958;12.492;2022-08-02T03:31:54;2.63;;;0.85;;
40373;SDS011;26079;45.958;12.492;2022-08-02T03:34:20;2.42;;;1.63;;
40373;SDS011;26079;45.958;12.492;2022-08-02T03:36:47;0.80;;;0.70;;
40373;SDS011;26079;45.958;12.492;2022-08-02T03:39:16;2.25;;;1.20;;
40373;SDS011;26079;45.958;12.492;2022-08-02T03:41:44;0.85;;;0.73;;
40373;SDS011;26079;45.958;12.492;2022-08-02T03:44:10;3.45;;;1.17;;
40373;SDS011;26079;45.958;12.492;2022-08-02T03:46:37;4.18;;;1.40;;
40373;SDS011;26079;45.958;12.492;2022-08-02T03:49:04;1.73;;;1.05;;
40373;SDS011;26079;45.958;12.492;2022-08-02T03:51:32;1.85;;;1.30;;
40373;SDS011;26079;45.958;12.492;2022-08-02T03:54:01;1.67;;;1.23;;
40373;SDS011;26079;45.958;12.492;2022-08-02T03:56:27;2.10;;;1.45;;
40373;SDS011;26079;45.958;12.492;2022-08-02T03:59:04;3.92;;;1.15;;
40373;SDS011;26079;45.958;12.492;2022-08-02T04:01:34;2.72;;;0.80;;
40373;SDS011;26079;45.958;12.492;2022-08-02T04:04:00;2.63;;;0.90;;
40373;SDS011;26079;45.958;12.492;2022-08-02T04:06:25;2.40;;;0.82;;
40373;SDS011;26079;45.958;12.492;2022-08-02T04:08:51;1.95;;;0.82;;
40373;SDS011;26079;45.958;12.492;2022-08-02T04:11:17;1.88;;;0.90;;
40373;SDS011;26079;45.958;12.492;2022-08-02T04:13:55;1.45;;;0.50;;
40373;SDS011;26079;45.958;12.492;2022-08-02T04:16:42;3.10;;;0.75;;
40373;SDS011;26079;45.958;12.492;2022-08-02T04:22:46;0.73;;;0.40;;
40373;SDS011;26079;45.958;12.492;2022-08-02T04:25:06;3.45;;;0.73;;
40373;SDS011;26079;45.958;12.492;2022-08-02T04:27:34;1.73;;;0.70;;
40373;SDS011;26079;45.958;12.492;2022-08-02T04:30:03;4.43;;;1.05;;
40373;SDS011;26079;45.958;12.492;2022-08-02T04:32:30;2.40;;;1.08;;
40373;SDS011;26079;45.958;12.492;2022-08-02T04:34:56;1.23;;;0.50;;
40373;SDS011;26079;45.958;12.492;2022-08-02T04:37:22;2.28;;;0.60;;
40373;SDS011;26079;45.958;12.492;2022-08-02T04:39:49;2.65;;;0.82;;
40373;SDS011;26079;45.958;12.492;2022-08-02T04:42:21;3.05;;;0.70;;
40373;SDS011;26079;45.958;12.492;2022-08-02T04:44:48;1.42;;;0.90;;
40373;SDS011;26079;45.958;12.492;2022-08-02T04:47:15;2.55;;;1.17;;
40373;SDS011;26079;45.958;12.492;2022-08-02T04:49:41;0.90;;;0.65;;
40373;SDS011;26079;45.958;12.492;2022-08-02T04:52:07;1.00;;;0.73;;
40373;SDS011;26079;45.958;12.492;2022-08-02T04:54:32;1.08;;;0.75;;
40373;SDS011;26079;45.958;12.492;2022-08-02T04:56:58;1.45;;;1.00;;
40373;SDS011;26079;45.958;12.492;2022-08-02T04:59:24;0.70;;;0.55;;
40373;SDS011;26079;45.958;12.492;2022-08-02T05:01:50;5.70;;;0.65;;
40373;SDS011;26079;45.958;12.492;2022-08-02T05:04:17;2.58;;;0.82;;
40373;SDS011;26079;45.958;12.492;2022-08-02T05:06:42;1.42;;;0.75;;
40373;SDS011;26079;45.958;12.492;2022-08-02T05:09:08;1.55;;;0.90;;
40373;SDS011;26079;45.958;12.492;2022-08-02T05:11:34;0.63;;;0.63;;
40373;SDS011;26079;45.958;12.492;2022-08-02T05:13:59;0.80;;;0.70;;
40373;SDS011;26079;45.958;12.492;2022-08-02T05:16:25;1.05;;;0.57;;
40373;SDS011;26079;45.958;12.492;2022-08-02T05:18:51;1.48;;;0.68;;
40373;SDS011;26079;45.958;12.492;2022-08-02T05:21:17;0.75;;;0.52;;
40373;SDS011;26079;45.958;12.492;2022-08-02T05:23:42;1.48;;;1.00;;
40373;SDS011;26079;45.958;12.492;2022-08-02T05:26:09;1.58;;;0.85;;
40373;SDS011;26079;45.958;12.492;2022-08-02T05:28:35;4.15;;;0.50;;
40373;SDS011;26079;45.958;12.492;2022-08-02T05:31:01;4.28;;;1.25;;
40373;SDS011;26079;45.958;12.492;2022-08-02T05:33:26;2.50;;;1.30;;
40373;SDS011;26079;45.958;12.492;2022-08-02T05:35:52;1.25;;;0.80;;
40373;SDS011;26079;45.958;12.492;2022-08-02T05:38:18;1.20;;;0.88;;
40373;SDS011;26079;45.958;12.492;2022-08-02T05:40:43;1.65;;;0.95;;
40373;SDS011;26079;45.958;12.492;2022-08-02T05:43:12;2.08;;;1.35;;
40373;SDS011;26079;45.958;12.492;2022-08-02T05:45:39;1.98;;;0.95;;
40373;SDS011;26079;45.958;12.492;2022-08-02T05:48:06;0.68;;;0.57;;
40373;SDS011;26079;45.958;12.492;2022-08-02T05:50:33;1.85;;;1.45;;
40373;SDS011;26079;45.958;12.492;2022-08-02T05:55:32;2.03;;;0.90;;
40373;SDS011;26079;45.958;12.492;2022-08-02T05:58:01;4.72;;;1.40;;
40373;SDS011;26079;45.958;12.492;2022-08-02T06:00:30;0.50;;;0.50;;
40373;SDS011;26079;45.958;12.492;2022-08-02T06:03:07;0.82;;;0.60;;
40373;SDS011;26079;45.958;12.492;2022-08-02T06:05:50;3.20;;;0.43;;
40373;SDS011;26079;45.958;12.492;2022-08-02T06:08:30;1.10;;;0.88;;
40373;SDS011;26079;45.958;12.492;2022-08-02T06:11:05;1.90;;;0.65;;
40373;SDS011;26079;45.958;12.492;2022-08-02T06:13:33;2.92;;;0.65;;
40373;SDS011;26079;45.958;12.492;2022-08-02T06:16:00;0.98;;;0.68;;
40373;SDS011;26079;45.958;12.492;2022-08-02T06:18:27;0.55;;;0.50;;
40373;SDS011;26079;45.958;12.492;2022-08-02T06:20:54;3.13;;;0.40;;
40373;SDS011;26079;45.958;12.492;2022-08-02T06:23:23;1.52;;;0.40;;
40373;SDS011;26079;45.958;12.492;2022-08-02T06:25:50;1.33;;;0.80;;
40373;SDS011;26079;45.958;12.492;2022-08-02T06:28:18;0.47;;;0.47;;
40373;SDS011;26079;45.958;12.492;2022-08-02T06:30:44;1.10;;;0.55;;
40373;SDS011;26079;45.958;12.492;2022-08-02T06:33:09;1.33;;;0.40;;
40373;SDS011;26079;45.958;12.492;2022-08-02T06:39:03;0.93;;;0.40;;
40373;SDS011;26079;45.958;12.492;2022-08-02T06:41:37;0.30;;;0.20;;
40373;SDS011;26079;45.958;12.492;2022-08-02T06:44:06;1.08;;;0.50;;
40373;SDS011;26079;45.958;12.492;2022-08-02T06:46:33;0.47;;;0.47;;
40373;SDS011;26079;45.958;12.492;2022-08-02T06:48:59;0.50;;;0.40;;
40373;SDS011;26079;45.958;12.492;2022-08-02T06:51:25;0.60;;;0.60;;
40373;SDS011;26079;45.958;12.492;2022-08-02T06:53:52;1.45;;;0.95;;
40373;SDS011;26079;45.958;12.492;2022-08-02T06:56:18;1.17;;;0.50;;
40373;SDS011;26079;45.958;12.492;2022-08-02T06:58:44;0.80;;;0.60;;
40373;SDS011;26079;45.958;12.492;2022-08-02T07:01:10;3.40;;;0.65;;
40373;SDS011;26079;45.958;12.492;2022-08-02T07:03:37;1.73;;;0.60;;
40373;SDS011;26079;45.958;12.492;2022-08-02T07:06:05;3.97;;;0.93;;
40373;SDS011;26079;45.958;12.492;2022-08-02T07:08:35;1.08;;;0.30;;
40373;SDS011;26079;45.958;12.492;2022-08-02T07:11:06;1.65;;;0.40;;
40373;SDS011;26079;45.958;12.492;2022-08-02T07:13:33;0.52;;;0.30;;
40373;SDS011;26079;45.958;12.492;2022-08-02T07:15:59;1.23;;;0.65;;
40373;SDS011;26079;45.958;12.492;2022-08-02T07:18:26;0.20;;;0.20;;
40373;SDS011;26079;45.958;12.492;2022-08-02T07:20:52;0.77;;;0.70;;
40373;SDS011;26079;45.958;12.492;2022-08-02T07:23:18;2.05;;;0.40;;
40373;SDS011;26079;45.958;12.492;2022-08-02T07:25:44;0.75;;;0.43;;
40373;SDS011;26079;45.958;12.492;2022-08-02T07:28:11;0.43;;;0.43;;
40373;SDS011;26079;45.958;12.492;2022-08-02T07:30:39;1.67;;;0.50;;
40373;SDS011;26079;45.958;12.492;2022-08-02T07:33:05;1.55;;;0.68;;
40373;SDS011;26079;45.958;12.492;2022-08-02T07:35:32;1.50;;;0.95;;
40373;SDS011;26079;45.958;12.492;2022-08-02T07:37:57;1.05;;;0.63;;
40373;SDS011;26079;45.958;12.492;2022-08-02T07:40:23;1.30;;;0.50;;
40373;SDS011;26079;45.958;12.492;2022-08-02T07:42:51;0.40;;;0.40;;
40373;SDS011;26079;45.958;12.492;2022-08-02T07:45:20;1.20;;;0.47;;
40373;SDS011;26079;45.958;12.492;2022-08-02T07:47:46;3.90;;;1.00;;
40373;SDS011;26079;45.958;12.492;2022-08-02T07:50:13;2.28;;;0.52;;
40373;SDS011;26079;45.958;12.492;2022-08-02T07:52:41;0.45;;;0.32;;
40373;SDS011;26079;45.958;12.492;2022-08-02T07:55:07;1.60;;;0.50;;
40373;SDS011;26079;45.958;12.492;2022-08-02T07:57:33;0.40;;;0.30;;
40373;SDS011;26079;45.958;12.492;2022-08-02T08:00:00;1.13;;;0.43;;
40373;SDS011;26079;45.958;12.492;2022-08-02T08:02:26;0.40;;;0.35;;
40373;SDS011;26079;45.958;12.492;2022-08-02T08:04:52;0.63;;;0.52;;
40373;SDS011;26079;45.958;12.492;2022-08-02T08:07:18;1.08;;;0.50;;
40373;SDS011;26079;45.958;12.492;2022-08-02T08:09:44;0.47;;;0.45;;
40373;SDS011;26079;45.958;12.492;2022-08-02T08:12:11;0.93;;;0.40;;
40373;SDS011;26079;45.958;12.492;2022-08-02T08:14:38;0.20;;;0.20;;
40373;SDS011;26079;45.958;12.492;2022-08-02T08:17:04;0.55;;;0.55;;
40373;SDS011;26079;45.958;12.492;2022-08-02T08:19:30;1.58;;;0.80;;
40373;SDS011;26079;45.958;12.492;2022-08-02T08:21:56;0.40;;;0.40;;
40373;SDS011;26079;45.958;12.492;2022-08-02T08:24:24;0.32;;;0.22;;
40373;SDS011;26079;45.958;12.492;2022-08-02T08:26:51;0.93;;;0.40;;
40373;SDS011;26079;45.958;12.492;2022-08-02T08:29:17;1.05;;;0.50;;
40373;SDS011;26079;45.958;12.492;2022-08-02T08:31:42;2.03;;;0.60;;
40373;SDS011;26079;45.958;12.492;2022-08-02T08:34:08;0.43;;;0.40;;
40373;SDS011;26079;45.958;12.492;2022-08-02T08:36:34;0.73;;;0.50;;
40373;SDS011;26079;45.958;12.492;2022-08-02T08:39:00;1.23;;;0.50;;
40373;SDS011;26079;45.958;12.492;2022-08-02T08:41:25;0.60;;;0.60;;
40373;SDS011;26079;45.958;12.492;2022-08-02T08:43:51;0.47;;;0.43;;
40373;SDS011;26079;45.958;12.492;2022-08-02T08:46:30;0.60;;;0.45;;
40373;SDS011;26079;45.958;12.492;2022-08-02T08:49:20;0.88;;;0.68;;
40373;SDS011;26079;45.958;12.492;2022-08-02T08:51:44;4.57;;;0.77;;
40373;SDS011;26079;45.958;12.492;2022-08-02T08:54:11;1.17;;;0.60;;
40373;SDS011;26079;45.958;12.492;2022-08-02T08:56:41;0.90;;;0.70;;
40373;SDS011;26079;45.958;12.492;2022-08-02T08:59:07;1.50;;;0.73;;
40373;SDS011;26079;45.958;12.492;2022-08-02T09:01:33;0.40;;;0.40;;
40373;SDS011;26079;45.958;12.492;2022-08-02T09:03:59;0.65;;;0.65;;
40373;SDS011;26079;45.958;12.492;2022-08-02T09:06:25;2.85;;;0.68;;
40373;SDS011;26079;45.958;12.492;2022-08-02T09:08:52;0.45;;;0.40;;
40373;SDS011;26079;45.958;12.492;2022-08-02T09:11:21;1.55;;;0.52;;
40373;SDS011;26079;45.958;12.492;2022-08-02T09:22:00;1.08;;;0.52;;
40373;SDS011;26079;45.958;12.492;2022-08-02T09:24:42;0.75;;;0.40;;
40373;SDS011;26079;45.958;12.492;2022-08-02T09:27:16;2.78;;;0.50;;
40373;SDS011;26079;45.958;12.492;2022-08-02T09:29:48;1.67;;;0.82;;
40373;SDS011;26079;45.958;12.492;2022-08-02T09:32:15;0.40;;;0.30;;
40373;SDS011;26079;45.958;12.492;2022-08-02T09:34:49;2.40;;;0.88;;
40373;SDS011;26079;45.958;12.492;2022-08-02T09:37:23;2.10;;;0.70;;
40373;SDS011;26079;45.958;12.492;2022-08-02T09:39:56;0.70;;;0.60;;
40373;SDS011;26079;45.958;12.492;2022-08-02T09:42:27;0.43;;;0.40;;
40373;SDS011;26079;45.958;12.492;2022-08-02T09:44:57;0.38;;;0.38;;
40373;SDS011;26079;45.958;12.492;2022-08-02T09:47:25;0.40;;;0.40;;
40373;SDS011;26079;45.958;12.492;2022-08-02T09:49:55;1.05;;;0.70;;
40373;SDS011;26079;45.958;12.492;2022-08-02T09:52:26;0.90;;;0.90;;
40373;SDS011;26079;45.958;12.492;2022-08-02T09:55:01;2.33;;;0.85;;
40373;SDS011;26079;45.958;12.492;2022-08-02T09:57:29;3.22;;;0.40;;
40373;SDS011;26079;45.958;12.492;2022-08-02T09:59:57;0.73;;;0.40;;
40373;SDS011;26079;45.958;12.492;2022-08-02T10:02:24;1.58;;;0.40;;
40373;SDS011;26079;45.958;12.492;2022-08-02T10:04:50;0.30;;;0.30;;
40373;SDS011;26079;45.958;12.492;2022-08-02T10:07:16;2.28;;;0.93;;
40373;SDS011;26079;45.958;12.492;2022-08-02T10:09:43;0.90;;;0.57;;
40373;SDS011;26079;45.958;12.492;2022-08-02T10:12:11;0.63;;;0.52;;
40373;SDS011;26079;45.958;12.492;2022-08-02T10:14:37;3.00;;;0.50;;
40373;SDS011;26079;45.958;12.492;2022-08-02T10:17:03;0.82;;;0.47;;
40373;SDS011;26079;45.958;12.492;2022-08-02T10:19:31;2.30;;;0.40;;
40373;SDS011;26079;45.958;12.492;2022-08-02T10:22:04;0.70;;;0.40;;
40373;SDS011;26079;45.958;12.492;2022-08-02T10:24:35;0.22;;;0.22;;
40373;SDS011;26079;45.958;12.492;2022-08-02T10:27:03;0.85;;;0.32;;
40373;SDS011;26079;45.958;12.492;2022-08-02T10:29:37;1.13;;;0.43;;
40373;SDS011;26079;45.958;12.492;2022-08-02T10:32:08;1.17;;;0.20;;
40373;SDS011;26079;45.958;12.492;2022-08-02T10:35:20;0.38;;;0.35;;
40373;SDS011;26079;45.958;12.492;2022-08-02T10:37:30;0.77;;;0.40;;
40373;SDS011;26079;45.958;12.492;2022-08-02T10:39:58;1.08;;;0.30;;
40373;SDS011;26079;45.958;12.492;2022-08-02T10:45:09;1.17;;;0.50;;
40373;SDS011;26079;45.958;12.492;2022-08-02T10:47:36;0.30;;;0.30;;
40373;SDS011;26079;45.958;12.492;2022-08-02T10:50:02;0.70;;;0.45;;
40373;SDS011;26079;45.958;12.492;2022-08-02T10:52:29;0.40;;;0.30;;
40373;SDS011;26079;45.958;12.492;2022-08-02T10:54:56;4.50;;;0.52;;
40373;SDS011;26079;45.958;12.492;2022-08-02T10:57:27;1.98;;;0.50;;
40373;SDS011;26079;45.958;12.492;2022-08-02T11:00:00;4.18;;;0.40;;
40373;SDS011;26079;45.958;12.492;2022-08-02T11:02:38;1.48;;;0.50;;
40373;SDS011;26079;45.958;12.492;2022-08-02T11:05:07;1.42;;;0.60;;
40373;SDS011;26079;45.958;12.492;2022-08-02T11:07:41;4.82;;;0.50;;
40373;SDS011;26079;45.958;12.492;2022-08-02T11:10:28;0.52;;;0.30;;
40373;SDS011;26079;45.958;12.492;2022-08-02T11:18:21;1.08;;;0.35;;
40373;SDS011;26079;45.958;12.492;2022-08-02T11:23:52;1.48;;;0.73;;
40373;SDS011;26079;45.958;12.492;2022-08-02T11:29:00;0.40;;;0.38;;
40373;SDS011;26079;45.958;12.492;2022-08-02T11:31:28;3.85;;;0.45;;
40373;SDS011;26079;45.958;12.492;2022-08-02T11:34:02;0.60;;;0.60;;
40373;SDS011;26079;45.958;12.492;2022-08-02T11:36:28;0.68;;;0.57;;
40373;SDS011;26079;45.958;12.492;2022-08-02T11:39:07;0.70;;;0.47;;
40373;SDS011;26079;45.958;12.492;2022-08-02T11:41:37;1.13;;;0.63;;
40373;SDS011;26079;45.958;12.492;2022-08-02T11:44:03;2.33;;;0.70;;
40373;SDS011;26079;45.958;12.492;2022-08-02T11:46:29;1.95;;;0.40;;
40373;SDS011;26079;45.958;12.492;2022-08-02T11:48:54;2.22;;;0.40;;
40373;SDS011;26079;45.958;12.492;2022-08-02T11:51:20;0.30;;;0.30;;
40373;SDS011;26079;45.958;12.492;2022-08-02T11:53:49;2.00;;;0.52;;
40373;SDS011;26079;45.958;12.492;2022-08-02T11:56:26;1.77;;;0.80;;
40373;SDS011;26079;45.958;12.492;2022-08-02T11:59:06;0.47;;;0.20;;
40373;SDS011;26079;45.958;12.492;2022-08-02T12:01:35;1.55;;;0.52;;
40373;SDS011;26079;45.958;12.492;2022-08-02T12:04:03;0.70;;;0.50;;
40373;SDS011;26079;45.958;12.492;2022-08-02T12:06:30;0.30;;;0.30;;
40373;SDS011;26079;45.958;12.492;2022-08-02T12:09:18;0.15;;;0.15;;
40373;SDS011;26079;45.958;12.492;2022-08-02T12:11:43;1.08;;;0.45;;
40373;SDS011;26079;45.958;12.492;2022-08-02T12:14:15;0.77;;;0.40;;
40373;SDS011;26079;45.958;12.492;2022-08-02T12:16:42;9.13;;;0.82;;
40373;SDS011;26079;45.958;12.492;2022-08-02T12:19:26;0.82;;;0.38;;
40373;SDS011;26079;45.958;12.492;2022-08-02T12:24:43;0.65;;;0.40;;
40373;SDS011;26079;45.958;12.492;2022-08-02T12:27:26;0.60;;;0.45;;
40373;SDS011;26079;45.958;12.492;2022-08-02T12:29:57;0.50;;;0.50;;
40373;SDS011;26079;45.958;12.492;2022-08-02T12:32:24;1.10;;;0.45;;
40373;SDS011;26079;45.958;12.492;2022-08-02T12:37:54;0.73;;;0.43;;
40373;SDS011;26079;45.958;12.492;2022-08-02T12:42:49;0.30;;;0.30;;
40373;SDS011;26079;45.958;12.492;2022-08-02T12:45:18;0.52;;;0.40;;
40373;SDS011;26079;45.958;12.492;2022-08-02T12:47:48;0.68;;;0.40;;
40373;SDS011;26079;45.958;12.492;2022-08-02T12:50:26;0.52;;;0.47;;
40373;SDS011;26079;45.958;12.492;2022-08-02T12:53:04;0.30;;;0.20;;
40373;SDS011;26079;45.958;12.492;2022-08-02T12:55:48;3.53;;;0.40;;
40373;SDS011;26079;45.958;12.492;2022-08-02T12:58:19;0.82;;;0.50;;
40373;SDS011;26079;45.958;12.492;2022-08-02T13:00:51;0.75;;;0.35;;
40373;SDS011;26079;45.958;12.492;2022-08-02T13:03:19;0.43;;;0.32;;
40373;SDS011;26079;45.958;12.492;2022-08-02T13:05:45;7.68;;;0.68;;
40373;SDS011;26079;45.958;12.492;2022-08-02T13:08:11;0.40;;;0.30;;
40373;SDS011;26079;45.958;12.492;2022-08-02T13:10:37;0.30;;;0.30;;
40373;SDS011;26079;45.958;12.492;2022-08-02T13:13:03;0.88;;;0.30;;
40373;SDS011;26079;45.958;12.492;2022-08-02T13:15:29;0.40;;;0.38;;
40373;SDS011;26079;45.958;12.492;2022-08-02T13:17:56;0.50;;;0.50;;
40373;SDS011;26079;45.958;12.492;2022-08-02T13:20:23;0.20;;;0.20;;
40373;SDS011;26079;45.958;12.492;2022-08-02T13:22:51;0.32;;;0.32;;
40373;SDS011;26079;45.958;12.492;2022-08-02T13:25:17;0.47;;;0.43;;
40373;SDS011;26079;45.958;12.492;2022-08-02T13:27:46;1.15;;;0.50;;
40373;SDS011;26079;45.958;12.492;2022-08-02T13:30:13;2.65;;;0.32;;
40373;SDS011;26079;45.958;12.492;2022-08-02T13:32:38;0.65;;;0.30;;
40373;SDS011;26079;45.958;12.492;2022-08-02T13:35:04;0.65;;;0.50;;
40373;SDS011;26079;45.958;12.492;2022-08-02T13:37:30;0.88;;;0.20;;
40373;SDS011;26079;45.958;12.492;2022-08-02T13:39:56;0.60;;;0.50;;
40373;SDS011;26079;45.958;12.492;2022-08-02T13:42:22;4.97;;;0.60;;
40373;SDS011;26079;45.958;12.492;2022-08-02T13:44:48;0.40;;;0.40;;
40373;SDS011;26079;45.958;12.492;2022-08-02T13:47:13;0.40;;;0.30;;
40373;SDS011;26079;45.958;12.492;2022-08-02T13:49:39;0.43;;;0.38;;
40373;SDS011;26079;45.958;12.492;2022-08-02T13:52:05;0.90;;;0.45;;
40373;SDS011;26079;45.958;12.492;2022-08-02T13:54:31;0.85;;;0.57;;
40373;SDS011;26079;45.958;12.492;2022-08-02T13:56:57;0.75;;;0.30;;
40373;SDS011;26079;45.958;12.492;2022-08-02T13:59:23;0.75;;;0.30;;
40373;SDS011;26079;45.958;12.492;2022-08-02T14:01:49;5.88;;;0.65;;
40373;SDS011;26079;45.958;12.492;2022-08-02T14:04:15;0.57;;;0.40;;
40373;SDS011;26079;45.958;12.492;2022-08-02T14:06:40;1.75;;;0.30;;
40373;SDS011;26079;45.958;12.492;2022-08-02T14:09:06;0.32;;;0.30;;
40373;SDS011;26079;45.958;12.492;2022-08-02T14:11:32;0.30;;;0.30;;
40373;SDS011;26079;45.958;12.492;2022-08-02T14:13:58;0.30;;;0.30;;
40373;SDS011;26079;45.958;12.492;2022-08-02T14:16:23;1.02;;;0.55;;
40373;SDS011;26079;45.958;12.492;2022-08-02T14:18:49;1.40;;;0.68;;
40373;SDS011;26079;45.958;12.492;2022-08-02T14:21:15;1.77;;;0.60;;
40373;SDS011;26079;45.958;12.492;2022-08-02T14:23:41;0.60;;;0.47;;
40373;SDS011;26079;45.958;12.492;2022-08-02T14:26:06;0.52;;;0.45;;
40373;SDS011;26079;45.958;12.492;2022-08-02T14:28:34;0.20;;;0.20;;
40373;SDS011;26079;45.958;12.492;2022-08-02T14:31:00;0.75;;;0.70;;
40373;SDS011;26079;45.958;12.492;2022-08-02T14:33:26;0.40;;;0.30;;
40373;SDS011;26079;45.958;12.492;2022-08-02T14:35:52;0.30;;;0.30;;
40373;SDS011;26079;45.958;12.492;2022-08-02T14:38:17;0.50;;;0.50;;
40373;SDS011;26079;45.958;12.492;2022-08-02T14:40:44;1.55;;;0.32;;
40373;SDS011;26079;45.958;12.492;2022-08-02T14:43:10;0.73;;;0.40;;
40373;SDS011;26079;45.958;12.492;2022-08-02T14:45:56;0.40;;;0.40;;
40373;SDS011;26079;45.958;12.492;2022-08-02T14:48:21;0.50;;;0.30;;
40373;SDS011;26079;45.958;12.492;2022-08-02T14:50:47;0.20;;;0.20;;
40373;SDS011;26079;45.958;12.492;2022-08-02T14:53:13;0.50;;;0.30;;
40373;SDS011;26079;45.958;12.492;2022-08-02T14:55:39;0.30;;;0.30;;
40373;SDS011;26079;45.958;12.492;2022-08-02T14:58:05;1.80;;;0.88;;
40373;SDS011;26079;45.958;12.492;2022-08-02T15:00:31;0.65;;;0.52;;
40373;SDS011;26079;45.958;12.492;2022-08-02T15:02:57;0.52;;;0.38;;
40373;SDS011;26079;45.958;12.492;2022-08-02T15:05:22;0.45;;;0.38;;
40373;SDS011;26079;45.958;12.492;2022-08-02T15:07:48;0.30;;;0.22;;
40373;SDS011;26079;45.958;12.492;2022-08-02T15:10:14;1.23;;;0.25;;
40373;SDS011;26079;45.958;12.492;2022-08-02T15:12:40;0.35;;;0.28;;
40373;SDS011;26079;45.958;12.492;2022-08-02T15:15:05;2.38;;;0.32;;
40373;SDS011;26079;45.958;12.492;2022-08-02T15:17:31;0.57;;;0.20;;
40373;SDS011;26079;45.958;12.492;2022-08-02T15:19:57;0.90;;;0.57;;
40373;SDS011;26079;45.958;12.492;2022-08-02T15:22:23;0.22;;;0.20;;
40373;SDS011;26079;45.958;12.492;2022-08-02T15:24:48;0.60;;;0.45;;
40373;SDS011;26079;45.958;12.492;2022-08-02T15:27:14;0.70;;;0.30;;
40373;SDS011;26079;45.958;12.492;2022-08-02T15:29:44;0.20;;;0.17;;